createdAt,value
2023-07-18T00:00:30.898Z,13.57
2023-07-18T00:03:30.175Z,10.98
2023-07-18T00:06:28.094Z,13.68
2023-07-18T00:09:26.358Z,15.27
2023-07-18T00:12:24.843Z,15.68
2023-07-18T00:15:23.734Z,13.93
2023-07-18T00:18:23.204Z,11.18
2023-07-18T00:21:21.614Z,11.40
2023-07-18T00:24:19.672Z,11.13
2023-07-18T00:27:18.141Z,14.80
2023-07-18T00:30:16.371Z,10.95
2023-07-18T00:33:14.108Z,10.85
2023-07-18T00:36:12.037Z,17.10
2023-07-18T00:39:09.829Z,15.23
2023-07-18T00:42:08.143Z,11.98
2023-07-18T00:45:07.654Z,12.27
2023-07-18T00:48:05.998Z,11.13
2023-07-18T00:51:06.066Z,11.68
2023-07-18T00:54:04.730Z,12.75
2023-07-18T00:57:03.446Z,12.63
2023-07-18T01:00:01.888Z,15.73
2023-07-18T01:03:00.005Z,12.13
2023-07-18T01:05:58.096Z,14.70
2023-07-18T01:08:56.417Z,24.15
2023-07-18T01:11:54.381Z,11.23
2023-07-18T01:14:52.156Z,8.95
2023-07-18T01:17:51.123Z,12.93
2023-07-18T01:20:50.295Z,12.95
2023-07-18T01:23:48.412Z,11.98
2023-07-18T01:26:46.200Z,13.27
2023-07-18T01:29:44.130Z,11.98
2023-07-18T01:32:43.625Z,17.30
2023-07-18T01:35:41.693Z,14.27
2023-07-18T01:38:39.556Z,13.25
2023-07-18T01:41:37.500Z,13.52
2023-07-18T01:44:35.434Z,13.23
2023-07-18T01:47:33.665Z,12.80
2023-07-18T01:50:31.782Z,18.88
2023-07-18T01:53:29.685Z,14.60
2023-07-18T01:56:27.440Z,12.63
2023-07-18T01:59:25.326Z,11.95
2023-07-18T02:02:23.492Z,13.32
2023-07-18T02:05:24.806Z,17.17
2023-07-18T02:08:22.613Z,17.60
2023-07-18T02:11:20.830Z,16.10
2023-07-18T02:14:21.526Z,17.83
2023-07-18T02:17:19.538Z,17.00
2023-07-18T02:20:17.368Z,15.75
2023-07-18T02:23:15.431Z,13.25
2023-07-18T02:26:15.692Z,26.02
2023-07-18T02:29:14.851Z,15.02
2023-07-18T02:32:12.668Z,16.35
2023-07-18T02:35:12.359Z,17.83
2023-07-18T02:38:10.183Z,18.67
2023-07-18T02:41:08.079Z,16.05
2023-07-18T02:44:07.332Z,14.93
2023-07-18T02:47:06.369Z,15.30
2023-07-18T02:50:04.234Z,14.30
2023-07-18T02:53:02.154Z,18.20
2023-07-18T02:56:00.006Z,23.88
2023-07-18T02:58:57.895Z,24.13
2023-07-18T03:01:56.689Z,15.35
2023-07-18T03:04:54.660Z,17.08
2023-07-18T03:07:56.133Z,19.40
2023-07-18T03:10:54.185Z,18.35
2023-07-18T03:13:51.945Z,17.98
2023-07-18T03:16:50.777Z,18.58
2023-07-18T03:19:48.774Z,18.08
2023-07-18T03:22:48.337Z,17.25
2023-07-18T03:25:46.177Z,14.90
2023-07-18T03:28:44.079Z,16.42
2023-07-18T03:31:42.216Z,16.45
2023-07-18T03:34:40.225Z,16.95
2023-07-18T03:37:38.235Z,18.20
2023-07-18T03:40:36.170Z,17.52
2023-07-18T03:43:34.054Z,21.80
2023-07-18T03:46:31.992Z,18.00
2023-07-18T03:49:31.034Z,17.38
2023-07-18T03:52:28.940Z,22.05
2023-07-18T03:55:26.708Z,25.60
2023-07-18T03:58:24.541Z,24.38
2023-07-18T04:01:22.596Z,24.50
2023-07-18T04:04:20.930Z,27.33
2023-07-18T04:07:19.447Z,34.80
2023-07-18T04:10:17.528Z,34.95
2023-07-18T04:13:15.694Z,32.83
2023-07-18T04:16:14.345Z,35.60
2023-07-18T04:19:12.237Z,33.30
2023-07-18T04:22:10.149Z,32.58
2023-07-18T04:25:08.208Z,33.78
2023-07-18T04:28:06.219Z,46.05
2023-07-18T04:31:04.775Z,46.33
2023-07-18T04:34:02.709Z,50.60
2023-07-18T04:37:00.961Z,54.10
2023-07-18T04:39:58.886Z,44.70
2023-07-18T04:42:56.638Z,43.80
2023-07-18T04:45:55.007Z,60.30
2023-07-18T04:48:53.302Z,47.83
2023-07-18T04:51:53.018Z,49.90
2023-07-18T04:54:50.894Z,38.40
2023-07-18T04:57:48.755Z,44.75
2023-07-18T05:00:46.565Z,41.58
2023-07-18T05:03:56.696Z,43.33
2023-07-18T05:09:53.445Z,31.30
2023-07-18T05:12:55.797Z,33.05
2023-07-18T05:15:53.739Z,41.53
2023-07-18T05:18:51.611Z,35.72
2023-07-18T05:21:49.555Z,31.60
2023-07-18T05:24:47.342Z,38.67
2023-07-18T05:27:45.961Z,35.03
2023-07-18T05:30:43.908Z,31.35
2023-07-18T05:33:41.828Z,28.05
2023-07-18T05:36:39.620Z,40.03
2023-07-18T05:39:37.557Z,31.98
2023-07-18T05:42:35.269Z,30.88
2023-07-18T05:45:33.220Z,37.20
2023-07-18T05:48:32.264Z,32.63
2023-07-18T05:51:30.143Z,35.65
2023-07-18T05:54:28.064Z,32.42
2023-07-18T05:57:26.044Z,26.77
2023-07-18T06:00:24.036Z,33.08
2023-07-18T06:03:22.718Z,32.88
2023-07-18T06:06:20.989Z,31.95
2023-07-18T06:09:18.961Z,33.40
2023-07-18T06:12:17.689Z,34.70
2023-07-18T06:15:15.635Z,33.63
2023-07-18T06:18:13.364Z,41.78
2023-07-18T06:21:11.344Z,38.75
2023-07-18T06:24:18.670Z,37.60
2023-07-18T06:27:17.790Z,32.97
2023-07-18T06:30:15.727Z,30.55
2023-07-18T06:33:15.385Z,35.92
2023-07-18T06:36:14.103Z,31.77
2023-07-18T06:39:13.507Z,27.95
2023-07-18T06:42:11.398Z,33.80
2023-07-18T06:45:10.317Z,27.05
2023-07-18T06:48:08.502Z,30.17
2023-07-18T06:51:08.373Z,27.70
2023-07-18T06:54:06.243Z,27.42
2023-07-18T06:57:04.180Z,20.33
2023-07-18T07:00:02.077Z,27.13
2023-07-18T07:03:00.058Z,31.20
2023-07-18T07:05:57.890Z,27.90
2023-07-18T07:08:55.798Z,24.35
2023-07-18T07:11:53.548Z,26.98
2023-07-18T07:14:51.773Z,28.63
2023-07-18T07:17:49.590Z,28.02
2023-07-18T07:20:47.546Z,28.95
2023-07-18T07:23:45.334Z,25.80
2023-07-18T07:26:43.887Z,24.00
2023-07-18T07:29:42.042Z,22.90
2023-07-18T07:32:40.197Z,24.05
2023-07-18T07:35:38.000Z,31.23
2023-07-18T07:38:35.857Z,31.55
2023-07-18T07:41:33.728Z,27.45
2023-07-18T07:44:31.822Z,25.05
2023-07-18T07:47:29.686Z,25.90
2023-07-18T07:50:27.698Z,27.38
2023-07-18T07:53:25.527Z,24.05
2023-07-18T07:56:23.493Z,22.52
2023-07-18T07:59:21.279Z,20.42
2023-07-18T08:02:21.067Z,25.23
2023-07-18T08:05:19.016Z,22.73
2023-07-18T08:08:17.025Z,19.92
2023-07-18T08:11:14.769Z,16.75
2023-07-18T08:14:12.638Z,20.80
2023-07-18T08:17:10.452Z,20.02
2023-07-18T08:20:10.591Z,22.13
2023-07-18T08:23:08.837Z,20.13
2023-07-18T08:26:06.722Z,17.38
2023-07-18T08:29:04.471Z,20.40
2023-07-18T08:32:02.775Z,19.20
2023-07-18T08:35:00.668Z,25.63
2023-07-18T08:37:58.584Z,17.13
2023-07-18T08:40:59.810Z,21.10
2023-07-18T08:43:59.466Z,22.08
2023-07-18T08:46:58.221Z,20.15
2023-07-18T08:49:56.346Z,20.60
2023-07-18T08:52:54.193Z,18.38
2023-07-18T08:55:52.698Z,19.90
2023-07-18T08:58:50.632Z,18.13
2023-07-18T09:01:49.999Z,15.93
2023-07-18T09:04:48.728Z,21.25
2023-07-18T09:07:46.612Z,21.23
2023-07-18T09:10:44.514Z,19.52
2023-07-18T09:13:43.335Z,19.27
2023-07-18T09:16:45.013Z,22.55
2023-07-18T09:22:43.916Z,21.83
2023-07-18T09:25:41.877Z,21.17
2023-07-18T09:28:40.587Z,14.45
2023-07-18T09:31:39.985Z,15.07
2023-07-18T09:34:37.839Z,16.45
2023-07-18T09:37:47.791Z,18.15
2023-07-18T09:40:46.607Z,22.05
2023-07-18T09:43:45.475Z,15.38
2023-07-18T09:46:44.051Z,19.20
2023-07-18T09:49:44.812Z,20.92
2023-07-18T09:52:47.803Z,20.80
2023-07-18T09:55:46.118Z,18.08
2023-07-18T09:58:46.683Z,20.88
2023-07-18T10:01:45.256Z,18.42
2023-07-18T10:04:43.797Z,21.33
2023-07-18T10:07:42.996Z,19.95
2023-07-18T10:10:40.809Z,22.95
2023-07-18T10:14:12.661Z,21.00
2023-07-18T10:17:10.534Z,17.48
2023-07-18T10:20:20.646Z,20.80
2023-07-18T10:23:19.334Z,19.52
2023-07-18T10:26:17.613Z,21.25
2023-07-18T10:29:15.471Z,23.92
2023-07-18T10:32:13.769Z,18.75
2023-07-18T10:35:14.718Z,19.08
2023-07-18T10:38:15.855Z,18.30
2023-07-18T10:41:13.689Z,21.60
2023-07-18T10:44:15.937Z,17.90
2023-07-18T10:47:16.741Z,16.92
2023-07-18T10:53:17.054Z,15.45
2023-07-18T10:56:24.464Z,20.92
2023-07-18T10:59:23.779Z,22.88
2023-07-18T11:02:22.610Z,16.13
2023-07-18T11:05:20.569Z,17.83
2023-07-18T11:08:34.408Z,18.27
2023-07-18T11:11:32.181Z,18.65
2023-07-18T11:14:45.636Z,16.65
2023-07-18T11:17:45.310Z,17.25
2023-07-18T11:20:43.868Z,20.70
2023-07-18T11:23:43.310Z,21.35
2023-07-18T11:26:41.335Z,23.90
2023-07-18T11:29:39.331Z,22.92
2023-07-18T11:32:43.502Z,17.98
2023-07-18T11:35:47.541Z,16.45
2023-07-18T11:38:48.818Z,23.65
2023-07-18T11:41:46.900Z,17.48
2023-07-18T11:44:45.740Z,24.08
2023-07-18T11:47:46.251Z,20.05
2023-07-18T11:50:46.801Z,22.65
2023-07-18T11:53:44.713Z,18.20
2023-07-18T11:56:42.631Z,24.27
2023-07-18T11:59:40.433Z,23.55
2023-07-18T12:02:39.002Z,26.95
2023-07-18T12:05:36.819Z,28.17
2023-07-18T12:08:34.695Z,21.52
2023-07-18T12:11:32.704Z,20.15
2023-07-18T12:14:31.265Z,23.13
2023-07-18T12:17:29.142Z,22.92
2023-07-18T12:20:27.666Z,31.30
2023-07-18T12:23:25.604Z,17.63
2023-07-18T12:26:25.846Z,21.13
2023-07-18T12:29:23.985Z,14.20
2023-07-18T12:32:25.376Z,19.70
2023-07-18T12:35:25.239Z,19.90
2023-07-18T12:38:25.762Z,15.93
2023-07-18T12:44:26.885Z,15.88
2023-07-18T12:47:25.990Z,17.70
2023-07-18T12:50:25.941Z,22.58
2023-07-18T12:53:25.289Z,20.08
2023-07-18T12:56:23.522Z,15.55
2023-07-18T12:59:21.392Z,20.25
2023-07-18T13:02:19.364Z,15.90
2023-07-18T13:05:18.484Z,22.52
2023-07-18T13:28:10.275Z,17.90
2023-07-18T13:31:08.634Z,21.17
2023-07-18T13:34:06.760Z,24.95
2023-07-18T13:37:04.626Z,22.00
2023-07-18T13:40:02.636Z,20.02
2023-07-18T13:43:00.422Z,14.63
2023-07-18T13:45:58.382Z,25.58
2023-07-18T13:48:56.266Z,30.13
2023-07-18T13:51:54.232Z,26.08
2023-07-18T13:54:52.022Z,29.63
2023-07-18T13:57:50.418Z,26.98
2023-07-18T14:00:48.941Z,27.90
2023-07-18T14:03:47.044Z,24.60
2023-07-18T14:06:45.057Z,28.67
2023-07-18T14:09:43.134Z,26.30
2023-07-18T14:12:41.382Z,31.50
2023-07-18T14:15:39.317Z,30.27
2023-07-18T14:18:37.315Z,32.88
2023-07-18T14:21:35.351Z,21.33
2023-07-18T14:24:33.250Z,20.55
2023-07-18T14:27:31.201Z,22.80
2023-07-18T14:30:29.062Z,26.42
2023-07-18T14:33:27.015Z,17.92
2023-07-18T14:36:24.845Z,23.33
2023-07-18T14:39:22.899Z,21.83
2023-07-18T14:42:21.087Z,21.73
2023-07-18T14:45:19.410Z,15.02
2023-07-18T14:48:17.173Z,15.80
2023-07-18T14:51:15.572Z,16.35
2023-07-18T14:54:13.532Z,14.73
2023-07-18T14:57:11.448Z,13.32
2023-07-18T15:00:09.846Z,11.63
2023-07-18T15:03:07.914Z,10.05
2023-07-18T15:06:06.329Z,12.07
2023-07-18T15:09:04.346Z,10.13
2023-07-18T15:12:02.312Z,12.40
2023-07-18T15:15:00.273Z,9.15
2023-07-18T15:17:58.363Z,13.25
2023-07-18T15:20:56.395Z,14.23
2023-07-18T15:23:54.232Z,13.38
2023-07-18T15:26:52.210Z,9.55
2023-07-18T15:29:50.414Z,10.68
2023-07-18T15:32:48.340Z,10.50
2023-07-18T15:35:46.352Z,11.85
2023-07-18T15:38:46.314Z,10.43
2023-07-18T15:41:44.425Z,10.70
2023-07-18T15:44:42.507Z,11.48
2023-07-18T15:47:40.365Z,12.80
2023-07-18T15:50:38.398Z,12.07
2023-07-18T15:53:36.713Z,14.10
2023-07-18T15:56:34.632Z,16.08
2023-07-18T15:59:33.750Z,17.15
2023-07-18T16:02:32.359Z,13.27
2023-07-18T16:05:31.320Z,15.77
2023-07-18T16:08:29.296Z,16.83
2023-07-18T16:11:27.372Z,14.65
2023-07-18T16:14:25.765Z,15.73
2023-07-18T16:17:24.218Z,17.02
2023-07-18T16:20:22.171Z,17.67
2023-07-18T16:23:20.017Z,16.40
2023-07-18T16:26:20.640Z,14.05
2023-07-18T16:29:19.352Z,15.15
2023-07-18T16:32:17.719Z,15.18
2023-07-18T16:35:15.766Z,15.55
2023-07-18T16:38:13.811Z,16.02
2023-07-18T16:41:11.783Z,13.40
2023-07-18T16:44:11.662Z,14.00
2023-07-18T16:47:09.518Z,15.43
2023-07-18T16:50:08.177Z,13.18
2023-07-18T16:53:05.925Z,13.73
2023-07-18T16:56:03.897Z,13.25
2023-07-18T16:59:01.750Z,15.15
2023-07-18T17:01:59.712Z,18.10
2023-07-18T17:04:57.831Z,11.65
2023-07-18T17:07:55.846Z,16.63
2023-07-18T17:10:53.628Z,14.00
2023-07-18T17:13:52.718Z,13.63
2023-07-18T17:16:51.568Z,15.23
2023-07-18T17:20:04.692Z,13.40
2023-07-18T17:23:05.622Z,12.57
2023-07-18T17:26:03.589Z,13.40
2023-07-18T17:29:01.706Z,13.25
2023-07-18T17:31:59.766Z,13.13
2023-07-18T17:34:57.603Z,16.17
2023-07-18T17:37:55.533Z,13.80
2023-07-18T17:40:54.287Z,15.80
2023-07-18T17:43:52.475Z,14.40
2023-07-18T17:46:51.294Z,18.23
2023-07-18T17:49:49.274Z,20.95
2023-07-18T17:52:47.273Z,15.10
2023-07-18T17:55:45.197Z,14.70
2023-07-18T17:58:44.157Z,15.25
2023-07-18T18:01:42.231Z,22.27
2023-07-18T18:04:40.320Z,17.63
2023-07-18T18:07:38.288Z,20.58
2023-07-18T18:10:36.052Z,18.33
2023-07-18T18:13:34.039Z,18.30
2023-07-18T18:16:32.085Z,13.57
2023-07-18T18:19:30.090Z,13.63
2023-07-18T18:22:27.919Z,17.85
2023-07-18T18:25:25.955Z,14.68
2023-07-18T18:28:25.318Z,15.50
2023-07-18T18:31:23.643Z,15.52
2023-07-18T18:34:21.640Z,16.33
2023-07-18T18:37:19.604Z,13.63
2023-07-18T18:40:18.803Z,14.52
2023-07-18T18:43:16.668Z,14.50
2023-07-18T18:46:14.689Z,19.88
2023-07-18T18:49:26.007Z,13.77
2023-07-18T18:52:24.875Z,16.95
2023-07-18T18:55:25.374Z,13.98
2023-07-18T18:58:25.496Z,15.25
2023-07-18T19:01:23.659Z,15.93
2023-07-18T19:04:21.551Z,15.43
2023-07-18T19:07:21.871Z,16.95
2023-07-18T19:10:19.697Z,16.52
2023-07-18T19:13:18.304Z,14.52
2023-07-18T19:16:28.603Z,12.38
2023-07-18T19:19:43.517Z,15.27
2023-07-18T19:22:41.460Z,10.82
2023-07-18T19:25:39.473Z,12.38
2023-07-18T19:28:39.058Z,16.80
2023-07-18T19:31:37.220Z,15.43
2023-07-18T19:34:35.145Z,15.00
2023-07-18T19:37:33.647Z,13.15
2023-07-18T19:40:32.688Z,14.85
2023-07-18T19:43:32.984Z,17.42
2023-07-18T19:46:31.060Z,15.90
2023-07-18T19:49:30.489Z,14.10
2023-07-18T19:52:28.334Z,14.70
2023-07-18T19:55:26.251Z,18.38
2023-07-18T19:58:24.163Z,14.23
2023-07-18T20:01:22.587Z,13.10
2023-07-18T20:04:20.705Z,14.77
2023-07-18T20:07:18.825Z,14.77
2023-07-18T20:10:16.649Z,16.73
2023-07-18T20:13:14.546Z,14.85
2023-07-18T20:16:12.482Z,11.80
2023-07-18T20:19:10.369Z,16.95
2023-07-18T20:22:08.145Z,16.25
2023-07-18T20:25:06.659Z,15.65
2023-07-18T20:28:05.060Z,20.50
2023-07-18T20:31:03.138Z,13.68
2023-07-18T20:34:01.410Z,15.77
2023-07-18T20:36:59.296Z,18.73
2023-07-18T20:39:57.321Z,15.57
2023-07-18T20:42:55.204Z,15.73
2023-07-18T20:45:57.734Z,16.00
2023-07-18T20:48:55.741Z,14.07
2023-07-18T20:51:53.512Z,14.68
2023-07-18T20:54:51.970Z,12.85
2023-07-18T20:57:49.870Z,17.60
2023-07-18T21:00:48.966Z,16.65
2023-07-18T21:03:46.828Z,18.27
2023-07-18T21:06:44.815Z,16.60
2023-07-18T21:09:42.691Z,17.63
2023-07-18T21:12:40.612Z,16.23
2023-07-18T21:15:38.529Z,14.95
2023-07-18T21:18:36.446Z,15.10
2023-07-18T21:21:34.494Z,16.33
2023-07-18T21:24:32.395Z,13.40
2023-07-18T21:27:30.291Z,15.10
2023-07-18T21:30:28.456Z,14.48
2023-07-18T21:33:26.252Z,16.73
2023-07-18T21:36:24.340Z,13.98
2023-07-18T21:39:22.127Z,13.48
2023-07-18T21:42:20.150Z,14.95
2023-07-18T21:45:18.186Z,13.52
2023-07-18T21:48:16.142Z,15.57
2023-07-18T21:51:13.970Z,17.02
2023-07-18T21:54:11.911Z,12.77
2023-07-18T21:57:09.792Z,17.45
2023-07-18T22:00:08.467Z,20.33
2023-07-18T22:03:06.546Z,15.32
2023-07-18T22:06:04.570Z,13.55
2023-07-18T22:09:02.374Z,13.18
2023-07-18T22:12:00.315Z,16.95
2023-07-18T22:14:58.424Z,16.10
2023-07-18T22:17:56.467Z,12.90
2023-07-18T22:20:54.635Z,17.58
2023-07-18T22:23:52.519Z,12.80
2023-07-18T22:26:51.209Z,13.57
2023-07-18T22:29:49.152Z,13.88
2023-07-18T22:32:46.968Z,14.63
2023-07-18T22:35:45.109Z,15.73
2023-07-18T22:38:42.919Z,17.45
2023-07-18T22:41:41.010Z,16.85
2023-07-18T22:44:38.804Z,15.07
2023-07-18T22:47:36.702Z,16.63
2023-07-18T22:50:34.503Z,13.80
2023-07-18T22:53:34.103Z,21.60
2023-07-18T22:56:32.043Z,15.75
2023-07-18T22:59:29.985Z,15.65
2023-07-18T23:02:27.757Z,15.18
2023-07-18T23:05:25.798Z,18.50
2023-07-18T23:08:23.736Z,15.85
2023-07-18T23:11:22.069Z,14.57
2023-07-18T23:14:21.192Z,18.48
2023-07-18T23:17:19.256Z,15.52
2023-07-18T23:20:17.170Z,16.77
2023-07-18T23:23:15.465Z,13.10
2023-07-18T23:26:13.459Z,13.68
2023-07-18T23:29:11.503Z,12.50
2023-07-18T23:32:09.594Z,16.83
2023-07-18T23:35:08.237Z,20.10
2023-07-18T23:38:06.143Z,13.27
2023-07-18T23:41:04.243Z,13.20
2023-07-18T23:44:02.181Z,15.82
2023-07-18T23:47:00.478Z,14.48
2023-07-18T23:49:58.387Z,15.10
2023-07-18T23:52:57.422Z,17.67
2023-07-18T23:55:55.476Z,13.57
2023-07-18T23:58:53.587Z,19.83
